sensor_id;sensor_type;location;lat;lon;timestamp;pressure;altitude;pressure_sealevel;temperature;humidity
2397;BME280;1209;48.410;9.054;2023-10-31T00:01:46;94721.91;;;11.79;100.00
2397;BME280;1209;48.410;9.054;2023-10-31T00:04:11;94736.34;;;11.81;100.00
2397;BME280;1209;48.410;9.054;2023-10-31T00:06:36;94739.69;;;11.70;100.00
2397;BME280;1209;48.410;9.054;2023-10-31T00:09:02;94742.22;;;11.77;100.00
2397;BME280;1209;48.410;9.054;2023-10-31T00:11:27;94752.75;;;11.70;100.00
2397;BME280;1209;48.410;9.054;2023-10-31T00:13:52;94754.09;;;11.79;100.00
2397;BME280;1209;48.410;9.054;2023-10-31T00:16:18;94748.53;;;11.69;100.00
2397;BME280;1209;48.410;9.054;2023-10-31T00:18:43;94752.91;;;11.75;100.00
2397;BME280;1209;48.410;9.054;2023-10-31T00:21:08;94755.38;;;11.70;100.00
2397;BME280;1209;48.410;9.054;2023-10-31T00:23:33;94756.81;;;11.66;100.00
2397;BME280;1209;48.410;9.054;2023-10-31T00:25:59;94746.94;;;11.68;100.00
2397;BME280;1209;48.410;9.054;2023-10-31T00:28:24;94758.13;;;11.75;100.00
2397;BME280;1209;48.410;9.054;2023-10-31T00:30:49;94771.19;;;11.75;100.00
2397;BME280;1209;48.410;9.054;2023-10-31T00:33:14;94771.88;;;11.71;100.00
2397;BME280;1209;48.410;9.054;2023-10-31T00:35:40;94772.66;;;11.71;100.00
2397;BME280;1209;48.410;9.054;2023-10-31T00:38:05;94775.19;;;11.59;100.00
2397;BME280;1209;48.410;9.054;2023-10-31T00:40:30;94775.00;;;11.61;100.00
2397;BME280;1209;48.410;9.054;2023-10-31T00:42:57;94779.94;;;11.69;100.00
2397;BME280;1209;48.410;9.054;2023-10-31T00:45:24;94782.53;;;11.69;100.00
2397;BME280;1209;48.410;9.054;2023-10-31T00:47:49;94781.75;;;11.68;100.00
2397;BME280;1209;48.410;9.054;2023-10-31T00:50:14;94784.34;;;11.68;100.00
2397;BME280;1209;48.410;9.054;2023-10-31T00:52:39;94771.88;;;11.71;100.00
2397;BME280;1209;48.410;9.054;2023-10-31T00:55:05;94783.47;;;11.75;100.00
2397;BME280;1209;48.410;9.054;2023-10-31T00:57:30;94785.28;;;11.74;100.00
2397;BME280;1209;48.410;9.054;2023-10-31T00:59:55;94779.47;;;11.72;100.00
2397;BME280;1209;48.410;9.054;2023-10-31T01:02:21;94780.16;;;11.67;100.00
2397;BME280;1209;48.410;9.054;2023-10-31T01:04:46;94789.59;;;11.68;100.00
2397;BME280;1209;48.410;9.054;2023-10-31T01:07:11;94781.59;;;11.63;100.00
2397;BME280;1209;48.410;9.054;2023-10-31T01:09:38;94787.19;;;11.67;100.00
2397;BME280;1209;48.410;9.054;2023-10-31T01:12:04;94793.00;;;11.69;100.00
2397;BME280;1209;48.410;9.054;2023-10-31T01:14:29;94815.81;;;11.62;100.00
2397;BME280;1209;48.410;9.054;2023-10-31T01:16:55;94813.34;;;11.67;100.00
2397;BME280;1209;48.410;9.054;2023-10-31T01:19:20;94812.75;;;11.65;100.00
2397;BME280;1209;48.410;9.054;2023-10-31T01:21:46;94819.88;;;11.58;100.00
2397;BME280;1209;48.410;9.054;2023-10-31T01:24:11;94819.50;;;11.54;100.00
2397;BME280;1209;48.410;9.054;2023-10-31T01:26:36;94816.69;;;11.56;100.00
2397;BME280;1209;48.410;9.054;2023-10-31T01:29:02;94827.19;;;11.49;100.00
2397;BME280;1209;48.410;9.054;2023-10-31T01:31:27;94823.19;;;11.47;100.00
2397;BME280;1209;48.410;9.054;2023-10-31T01:33:53;94835.75;;;11.38;100.00
2397;BME280;1209;48.410;9.054;2023-10-31T01:36:18;94831.53;;;11.37;100.00
2397;BME280;1209;48.410;9.054;2023-10-31T01:38:43;94836.56;;;11.32;100.00
2397;BME280;1209;48.410;9.054;2023-10-31T01:41:11;94847.25;;;11.30;100.00
2397;BME280;1209;48.410;9.054;2023-10-31T01:43:37;94844.63;;;11.30;100.00
2397;BME280;1209;48.410;9.054;2023-10-31T01:46:03;94849.13;;;11.23;100.00
2397;BME280;1209;48.410;9.054;2023-10-31T01:48:29;94848.31;;;11.23;100.00
2397;BME280;1209;48.410;9.054;2023-10-31T01:50:56;94852.00;;;11.15;100.00
2397;BME280;1209;48.410;9.054;2023-10-31T01:53:24;94842.56;;;11.14;100.00
2397;BME280;1209;48.410;9.054;2023-10-31T01:55:50;94842.34;;;11.16;100.00
2397;BME280;1209;48.410;9.054;2023-10-31T01:58:17;94851.16;;;11.21;100.00
2397;BME280;1209;48.410;9.054;2023-10-31T02:00:43;94852.97;;;11.21;100.00
2397;BME280;1209;48.410;9.054;2023-10-31T02:03:09;94868.63;;;11.21;100.00
2397;BME280;1209;48.410;9.054;2023-10-31T02:05:35;94877.06;;;11.23;100.00
2397;BME280;1209;48.410;9.054;2023-10-31T02:08:01;94869.31;;;11.10;100.00
2397;BME280;1209;48.410;9.054;2023-10-31T02:10:26;94872.31;;;11.13;100.00
2397;BME280;1209;48.410;9.054;2023-10-31T02:12:52;94872.94;;;11.09;100.00
2397;BME280;1209;48.410;9.054;2023-10-31T02:15:17;94876.41;;;11.02;100.00
2397;BME280;1209;48.410;9.054;2023-10-31T02:17:42;94881.06;;;11.00;100.00
2397;BME280;1209;48.410;9.054;2023-10-31T02:20:08;94877.63;;;11.00;100.00
2397;BME280;1209;48.410;9.054;2023-10-31T02:22:33;94874.91;;;10.88;100.00
2397;BME280;1209;48.410;9.054;2023-10-31T02:24:59;94874.31;;;10.80;100.00
2397;BME280;1209;48.410;9.054;2023-10-31T02:27:24;94873.69;;;10.84;100.00
2397;BME280;1209;48.410;9.054;2023-10-31T02:29:49;94871.22;;;10.96;100.00
2397;BME280;1209;48.410;9.054;2023-10-31T02:32:14;94865.22;;;10.95;100.00
2397;BME280;1209;48.410;9.054;2023-10-31T02:34:40;94854.94;;;11.00;100.00
2397;BME280;1209;48.410;9.054;2023-10-31T02:37:05;94854.97;;;10.94;100.00
2397;BME280;1209;48.410;9.054;2023-10-31T02:39:31;94862.59;;;10.95;100.00
2397;BME280;1209;48.410;9.054;2023-10-31T02:41:56;94862.34;;;11.03;100.00
2397;BME280;1209;48.410;9.054;2023-10-31T02:44:23;94868.31;;;11.11;100.00
2397;BME280;1209;48.410;9.054;2023-10-31T02:46:49;94876.53;;;11.14;100.00
2397;BME280;1209;48.410;9.054;2023-10-31T02:49:14;94879.78;;;11.10;100.00
2397;BME280;1209;48.410;9.054;2023-10-31T02:51:39;94883.41;;;11.09;100.00
2397;BME280;1209;48.410;9.054;2023-10-31T02:54:05;94889.81;;;11.13;100.00
2397;BME280;1209;48.410;9.054;2023-10-31T02:56:30;94880.75;;;11.15;100.00
2397;BME280;1209;48.410;9.054;2023-10-31T02:58:55;94888.16;;;11.18;100.00
2397;BME280;1209;48.410;9.054;2023-10-31T03:01:21;94891.94;;;11.22;100.00
2397;BME280;1209;48.410;9.054;2023-10-31T03:03:46;94891.56;;;11.19;100.00
2397;BME280;1209;48.410;9.054;2023-10-31T03:06:11;94901.63;;;11.15;100.00
2397;BME280;1209;48.410;9.054;2023-10-31T03:08:36;94899.72;;;11.04;100.00
2397;BME280;1209;48.410;9.054;2023-10-31T03:11:02;94901.84;;;11.14;100.00
2397;BME280;1209;48.410;9.054;2023-10-31T03:13:27;94903.72;;;11.07;100.00
2397;BME280;1209;48.410;9.054;2023-10-31T03:15:52;94914.22;;;11.00;100.00
2397;BME280;1209;48.410;9.054;2023-10-31T03:18:17;94909.56;;;11.02;100.00
2397;BME280;1209;48.410;9.054;2023-10-31T03:20:44;94919.22;;;11.01;100.00
2397;BME280;1209;48.410;9.054;2023-10-31T03:23:14;94913.66;;;10.91;100.00
2397;BME280;1209;48.410;9.054;2023-10-31T03:25:39;94924.69;;;10.93;100.00
2397;BME280;1209;48.410;9.054;2023-10-31T03:28:17;94925.28;;;10.95;100.00
2397;BME280;1209;48.410;9.054;2023-10-31T03:30:43;94930.56;;;10.89;100.00
2397;BME280;1209;48.410;9.054;2023-10-31T03:33:08;94929.75;;;10.88;100.00
2397;BME280;1209;48.410;9.054;2023-10-31T03:35:34;94936.75;;;10.88;100.00
2397;BME280;1209;48.410;9.054;2023-10-31T03:37:59;94938.78;;;10.86;100.00
2397;BME280;1209;48.410;9.054;2023-10-31T03:40:24;94939.44;;;10.75;100.00
2397;BME280;1209;48.410;9.054;2023-10-31T03:42:49;94937.66;;;10.68;100.00
2397;BME280;1209;48.410;9.054;2023-10-31T03:45:15;94946.13;;;10.64;100.00
2397;BME280;1209;48.410;9.054;2023-10-31T03:47:40;94937.50;;;10.57;100.00
2397;BME280;1209;48.410;9.054;2023-10-31T03:50:06;94950.03;;;10.42;100.00
2397;BME280;1209;48.410;9.054;2023-10-31T03:52:31;94948.81;;;10.44;100.00
2397;BME280;1209;48.410;9.054;2023-10-31T03:54:56;94945.41;;;10.44;100.00
2397;BME280;1209;48.410;9.054;2023-10-31T03:57:21;94955.63;;;10.45;100.00
2397;BME280;1209;48.410;9.054;2023-10-31T03:59:47;94948.41;;;10.47;100.00
2397;BME280;1209;48.410;9.054;2023-10-31T04:02:12;94965.03;;;10.53;100.00
2397;BME280;1209;48.410;9.054;2023-10-31T04:04:37;94954.03;;;10.44;100.00
2397;BME280;1209;48.410;9.054;2023-10-31T04:07:03;94954.59;;;10.53;100.00
2397;BME280;1209;48.410;9.054;2023-10-31T04:09:28;94954.03;;;10.44;100.00
2397;BME280;1209;48.410;9.054;2023-10-31T04:11:53;94952.81;;;10.47;100.00
2397;BME280;1209;48.410;9.054;2023-10-31T04:14:18;94956.25;;;10.40;100.00
2397;BME280;1209;48.410;9.054;2023-10-31T04:16:44;94955.25;;;10.42;100.00
2397;BME280;1209;48.410;9.054;2023-10-31T04:19:11;94958.25;;;10.45;100.00
2397;BME280;1209;48.410;9.054;2023-10-31T04:21:38;94959.47;;;10.43;100.00
2397;BME280;1209;48.410;9.054;2023-10-31T04:24:03;94962.25;;;10.48;100.00
2397;BME280;1209;48.410;9.054;2023-10-31T04:26:29;94968.47;;;10.47;100.00
2397;BME280;1209;48.410;9.054;2023-10-31T04:28:54;94969.28;;;10.34;100.00
2397;BME280;1209;48.410;9.054;2023-10-31T04:31:19;94973.31;;;10.30;100.00
2397;BME280;1209;48.410;9.054;2023-10-31T04:33:44;94973.72;;;10.27;100.00
2397;BME280;1209;48.410;9.054;2023-10-31T04:36:09;94976.13;;;10.28;100.00
2397;BME280;1209;48.410;9.054;2023-10-31T04:38:37;94962.69;;;10.18;100.00
2397;BME280;1209;48.410;9.054;2023-10-31T04:41:03;94962.88;;;10.17;100.00
2397;BME280;1209;48.410;9.054;2023-10-31T04:43:28;94971.72;;;10.16;100.00
2397;BME280;1209;48.410;9.054;2023-10-31T04:45:54;94972.53;;;10.23;100.00
2397;BME280;1209;48.410;9.054;2023-10-31T04:48:19;94972.09;;;10.19;100.00
2397;BME280;1209;48.410;9.054;2023-10-31T04:50:44;94972.53;;;10.23;100.00
2397;BME280;1209;48.410;9.054;2023-10-31T04:53:09;94974.53;;;10.21;100.00
2397;BME280;1209;48.410;9.054;2023-10-31T04:55:35;94977.75;;;10.16;100.00
2397;BME280;1209;48.410;9.054;2023-10-31T04:58:00;94976.16;;;10.08;100.00
2397;BME280;1209;48.410;9.054;2023-10-31T05:00:25;94978.75;;;10.08;100.00
2397;BME280;1209;48.410;9.054;2023-10-31T05:02:50;94985.78;;;10.15;100.00
2397;BME280;1209;48.410;9.054;2023-10-31T05:05:16;94983.56;;;10.12;100.00
2397;BME280;1209;48.410;9.054;2023-10-31T05:07:41;94984.56;;;10.17;100.00
2397;BME280;1209;48.410;9.054;2023-10-31T05:10:07;94982.56;;;10.13;100.00
2397;BME280;1209;48.410;9.054;2023-10-31T05:12:32;94989.41;;;10.20;100.00
2397;BME280;1209;48.410;9.054;2023-10-31T05:14:57;94995.41;;;10.07;100.00
2397;BME280;1209;48.410;9.054;2023-10-31T05:17:22;94995.00;;;10.04;100.00
2397;BME280;1209;48.410;9.054;2023-10-31T05:19:48;95009.06;;;10.03;100.00
2397;BME280;1209;48.410;9.054;2023-10-31T05:22:14;95008.25;;;9.96;100.00
2397;BME280;1209;48.410;9.054;2023-10-31T05:24:39;95013.84;;;9.93;100.00
2397;BME280;1209;48.410;9.054;2023-10-31T05:27:04;95024.72;;;9.96;100.00
2397;BME280;1209;48.410;9.054;2023-10-31T05:29:32;95015.88;;;9.84;100.00
2397;BME280;1209;48.410;9.054;2023-10-31T05:31:57;95019.06;;;9.93;100.00
2397;BME280;1209;48.410;9.054;2023-10-31T05:34:23;95014.69;;;9.93;100.00
2397;BME280;1209;48.410;9.054;2023-10-31T05:36:48;95022.09;;;9.96;100.00
2397;BME280;1209;48.410;9.054;2023-10-31T05:39:13;95022.72;;;9.98;100.00
2397;BME280;1209;48.410;9.054;2023-10-31T05:41:40;95030.94;;;10.02;100.00
2397;BME280;1209;48.410;9.054;2023-10-31T05:44:06;95033.13;;;10.05;100.00
2397;BME280;1209;48.410;9.054;2023-10-31T05:46:31;95032.72;;;10.01;100.00
2397;BME280;1209;48.410;9.054;2023-10-31T05:48:56;95036.94;;;10.02;100.00
2397;BME280;1209;48.410;9.054;2023-10-31T05:51:22;95042.75;;;10.04;100.00
2397;BME280;1209;48.410;9.054;2023-10-31T05:53:48;95034.75;;;9.99;100.00
2397;BME280;1209;48.410;9.054;2023-10-31T05:56:15;95024.28;;;9.93;100.00
2397;BME280;1209;48.410;9.054;2023-10-31T05:58:40;95018.06;;;9.87;100.00
2397;BME280;1209;48.410;9.054;2023-10-31T06:01:06;95025.13;;;9.93;100.00
2397;BME280;1209;48.410;9.054;2023-10-31T06:03:32;95030.91;;;9.89;100.00
2397;BME280;1209;48.410;9.054;2023-10-31T06:05:58;95030.13;;;9.95;100.00
2397;BME280;1209;48.410;9.054;2023-10-31T06:08:23;95033.91;;;9.92;100.00
2397;BME280;1209;48.410;9.054;2023-10-31T06:10:50;95035.13;;;9.83;100.00
2397;BME280;1209;48.410;9.054;2023-10-31T06:13:16;95044.16;;;9.87;100.00
2397;BME280;1209;48.410;9.054;2023-10-31T06:15:41;95049.97;;;9.89;100.00
2397;BME280;1209;48.410;9.054;2023-10-31T06:18:06;95051.78;;;9.89;100.00
2397;BME280;1209;48.410;9.054;2023-10-31T06:20:32;95055.56;;;9.86;100.00
2397;BME280;1209;48.410;9.054;2023-10-31T06:22:59;95048.75;;;9.78;100.00
2397;BME280;1209;48.410;9.054;2023-10-31T06:25:24;95057.19;;;9.81;100.00
2397;BME280;1209;48.410;9.054;2023-10-31T06:27:49;95060.59;;;9.88;100.00
2397;BME280;1209;48.410;9.054;2023-10-31T06:30:15;95068.63;;;9.86;100.00
2397;BME280;1209;48.410;9.054;2023-10-31T06:32:40;95080.25;;;9.84;100.00
2397;BME280;1209;48.410;9.054;2023-10-31T06:35:06;95084.47;;;9.85;100.00
2397;BME280;1209;48.410;9.054;2023-10-31T06:37:32;95086.66;;;9.81;100.00
2397;BME280;1209;48.410;9.054;2023-10-31T06:39:57;95092.09;;;9.93;100.00
2397;BME280;1209;48.410;9.054;2023-10-31T06:42:22;95090.31;;;9.93;100.00
2397;BME280;1209;48.410;9.054;2023-10-31T06:44:48;95098.13;;;9.93;100.00
2397;BME280;1209;48.410;9.054;2023-10-31T06:47:13;95099.91;;;9.79;100.00
2397;BME280;1209;48.410;9.054;2023-10-31T06:49:38;95109.94;;;9.89;100.00
2397;BME280;1209;48.410;9.054;2023-10-31T06:52:04;95119.19;;;9.98;100.00
2397;BME280;1209;48.410;9.054;2023-10-31T06:54:29;95114.34;;;9.89;100.00
2397;BME280;1209;48.410;9.054;2023-10-31T06:56:56;95124.22;;;9.93;100.00
2397;BME280;1209;48.410;9.054;2023-10-31T06:59:21;95118.56;;;9.90;100.00
2397;BME280;1209;48.410;9.054;2023-10-31T07:01:47;95131.84;;;9.95;100.00
2397;BME280;1209;48.410;9.054;2023-10-31T07:04:12;95131.19;;;9.93;100.00
2397;BME280;1209;48.410;9.054;2023-10-31T07:06:38;95131.84;;;9.95;100.00
2397;BME280;1209;48.410;9.054;2023-10-31T07:09:04;95129.22;;;10.01;100.00
2397;BME280;1209;48.410;9.054;2023-10-31T07:11:31;95128.84;;;10.04;100.00
2397;BME280;1209;48.410;9.054;2023-10-31T07:14:00;95136.06;;;10.02;100.00
2397;BME280;1209;48.410;9.054;2023-10-31T07:16:26;95138.88;;;10.01;100.00
2397;BME280;1209;48.410;9.054;2023-10-31T07:18:51;95131.44;;;10.04;100.00
2397;BME280;1209;48.410;9.054;2023-10-31T07:21:16;95133.06;;;10.05;100.00
2397;BME280;1209;48.410;9.054;2023-10-31T07:23:41;95135.84;;;10.10;100.00
2397;BME280;1209;48.410;9.054;2023-10-31T07:26:07;95145.28;;;9.98;100.00
2397;BME280;1209;48.410;9.054;2023-10-31T07:28:32;95151.50;;;10.10;100.00
2397;BME280;1209;48.410;9.054;2023-10-31T07:30:57;95149.91;;;10.03;100.00
2397;BME280;1209;48.410;9.054;2023-10-31T07:33:22;95149.50;;;10.06;100.00
2397;BME280;1209;48.410;9.054;2023-10-31T07:35:48;95157.53;;;10.04;100.00
2397;BME280;1209;48.410;9.054;2023-10-31T07:38:13;95161.34;;;10.08;100.00
2397;BME280;1209;48.410;9.054;2023-10-31T07:40:39;95156.94;;;10.09;100.00
2397;BME280;1209;48.410;9.054;2023-10-31T07:43:05;95158.78;;;10.22;100.00
2397;BME280;1209;48.410;9.054;2023-10-31T07:45:30;95158.56;;;10.23;100.00
2397;BME280;1209;48.410;9.054;2023-10-31T07:47:55;95151.16;;;10.27;100.00
2397;BME280;1209;48.410;9.054;2023-10-31T07:50:20;95156.16;;;10.28;100.00
2397;BME280;1209;48.410;9.054;2023-10-31T07:52:46;95166.41;;;10.30;100.00
2397;BME280;1209;48.410;9.054;2023-10-31T07:55:12;95169.22;;;10.28;100.00
2397;BME280;1209;48.410;9.054;2023-10-31T07:57:38;95170.41;;;10.26;100.00
2397;BME280;1209;48.410;9.054;2023-10-31T08:00:03;95171.63;;;10.30;100.00
2397;BME280;1209;48.410;9.054;2023-10-31T08:02:29;95171.22;;;10.33;100.00
2397;BME280;1209;48.410;9.054;2023-10-31T08:04:54;95165.63;;;10.43;100.00
2397;BME280;1209;48.410;9.054;2023-10-31T08:07:19;95171.44;;;10.51;100.00
2397;BME280;1209;48.410;9.054;2023-10-31T08:09:44;95187.72;;;10.53;100.00
2397;BME280;1209;48.410;9.054;2023-10-31T08:12:10;95177.47;;;10.45;100.00
2397;BME280;1209;48.410;9.054;2023-10-31T08:14:35;95182.09;;;10.50;100.00
2397;BME280;1209;48.410;9.054;2023-10-31T08:17:00;95173.66;;;10.54;100.00
2397;BME280;1209;48.410;9.054;2023-10-31T08:19:25;95171.66;;;10.56;100.00
2397;BME280;1209;48.410;9.054;2023-10-31T08:21:51;95180.66;;;10.67;100.00
2397;BME280;1209;48.410;9.054;2023-10-31T08:24:16;95184.50;;;10.71;100.00
2397;BME280;1209;48.410;9.054;2023-10-31T08:26:41;95188.28;;;10.75;100.00
2397;BME280;1209;48.410;9.054;2023-10-31T08:29:07;95192.91;;;10.80;100.00
2397;BME280;1209;48.410;9.054;2023-10-31T08:31:32;95191.28;;;10.85;100.00
2397;BME280;1209;48.410;9.054;2023-10-31T08:33:57;95186.28;;;10.97;100.00
2397;BME280;1209;48.410;9.054;2023-10-31T08:36:22;95183.25;;;11.00;100.00
2397;BME280;1209;48.410;9.054;2023-10-31T08:38:48;95183.25;;;11.07;100.00
2397;BME280;1209;48.410;9.054;2023-10-31T08:41:14;95182.81;;;11.16;100.00
2397;BME280;1209;48.410;9.054;2023-10-31T08:43:44;95187.63;;;11.26;100.00
2397;BME280;1209;48.410;9.054;2023-10-31T08:46:10;95183.78;;;11.35;100.00
2397;BME280;1209;48.410;9.054;2023-10-31T08:48:35;95193.81;;;11.45;100.00
2397;BME280;1209;48.410;9.054;2023-10-31T08:51:00;95202.81;;;11.62;100.00
2397;BME280;1209;48.410;9.054;2023-10-31T08:53:25;95197.75;;;11.67;100.00
2397;BME280;1209;48.410;9.054;2023-10-31T08:55:52;95203.97;;;11.79;100.00
2397;BME280;1209;48.410;9.054;2023-10-31T08:58:17;95202.06;;;12.00;100.00
2397;BME280;1209;48.410;9.054;2023-10-31T09:00:43;95203.75;;;12.19;100.00
2397;BME280;1209;48.410;9.054;2023-10-31T09:03:09;95211.50;;;12.39;100.00
2397;BME280;1209;48.410;9.054;2023-10-31T09:05:34;95215.59;;;12.59;100.00
2397;BME280;1209;48.410;9.054;2023-10-31T09:07:59;95210.66;;;12.70;100.00
2397;BME280;1209;48.410;9.054;2023-10-31T09:10:24;95213.06;;;12.71;100.00
2397;BME280;1209;48.410;9.054;2023-10-31T09:12:50;95210.00;;;12.81;100.00
2397;BME280;1209;48.410;9.054;2023-10-31T09:15:15;95217.66;;;12.82;100.00
2397;BME280;1209;48.410;9.054;2023-10-31T09:17:41;95214.03;;;12.77;100.00
2397;BME280;1209;48.410;9.054;2023-10-31T09:20:06;95218.03;;;12.86;100.00
2397;BME280;1209;48.410;9.054;2023-10-31T09:22:33;95214.41;;;13.05;100.00
2397;BME280;1209;48.410;9.054;2023-10-31T09:24:58;95214.69;;;12.97;100.00
2397;BME280;1209;48.410;9.054;2023-10-31T09:27:24;95212.09;;;13.15;100.00
2397;BME280;1209;48.410;9.054;2023-10-31T09:29:49;95209.44;;;12.97;100.00
2397;BME280;1209;48.410;9.054;2023-10-31T09:32:16;95205.53;;;13.06;100.00
2397;BME280;1209;48.410;9.054;2023-10-31T09:34:41;95212.00;;;13.04;100.00
2397;BME280;1209;48.410;9.054;2023-10-31T09:37:07;95209.59;;;13.02;100.00
2397;BME280;1209;48.410;9.054;2023-10-31T09:39:32;95212.97;;;13.09;100.00
2397;BME280;1209;48.410;9.054;2023-10-31T09:41:57;95210.78;;;13.06;100.00
2397;BME280;1209;48.410;9.054;2023-10-31T09:44:23;95208.06;;;12.95;100.00
2397;BME280;1209;48.410;9.054;2023-10-31T09:46:49;95216.00;;;12.88;100.00
2397;BME280;1209;48.410;9.054;2023-10-31T09:49:16;95215.84;;;12.83;100.00
2397;BME280;1209;48.410;9.054;2023-10-31T09:51:41;95211.38;;;13.08;100.00
2397;BME280;1209;48.410;9.054;2023-10-31T09:54:07;95216.31;;;13.16;100.00
2397;BME280;1209;48.410;9.054;2023-10-31T09:56:33;95215.50;;;13.22;100.00
2397;BME280;1209;48.410;9.054;2023-10-31T09:59:00;95216.84;;;13.32;100.00
2397;BME280;1209;48.410;9.054;2023-10-31T10:01:26;95219.03;;;13.35;100.00
2397;BME280;1209;48.410;9.054;2023-10-31T10:03:52;95221.38;;;13.18;100.00
2397;BME280;1209;48.410;9.054;2023-10-31T10:06:17;95221.63;;;13.10;100.00
2397;BME280;1209;48.410;9.054;2023-10-31T10:08:46;95214.97;;;12.89;100.00
2397;BME280;1209;48.410;9.054;2023-10-31T10:11:11;95220.47;;;12.81;100.00
2397;BME280;1209;48.410;9.054;2023-10-31T10:13:37;95212.28;;;12.71;100.00
2397;BME280;1209;48.410;9.054;2023-10-31T10:16:02;95214.72;;;12.66;100.00
2397;BME280;1209;48.410;9.054;2023-10-31T10:18:29;95212.38;;;12.57;100.00
2397;BME280;1209;48.410;9.054;2023-10-31T10:21:05;95216.91;;;12.44;100.00
2397;BME280;1209;48.410;9.054;2023-10-31T10:23:31;95216.91;;;12.44;100.00
2397;BME280;1209;48.410;9.054;2023-10-31T10:25:58;95219.19;;;12.34;100.00
2397;BME280;1209;48.410;9.054;2023-10-31T10:28:24;95229.47;;;12.35;100.00
2397;BME280;1209;48.410;9.054;2023-10-31T10:30:54;95226.00;;;12.41;100.00
2397;BME280;1209;48.410;9.054;2023-10-31T10:33:20;95228.94;;;12.51;100.00
2397;BME280;1209;48.410;9.054;2023-10-31T10:35:46;95227.03;;;12.65;100.00
2397;BME280;1209;48.410;9.054;2023-10-31T10:38:15;95237.81;;;12.82;100.00
2397;BME280;1209;48.410;9.054;2023-10-31T10:40:43;95237.22;;;12.80;100.00
2397;BME280;1209;48.410;9.054;2023-10-31T10:43:16;95242.19;;;12.88;100.00
2397;BME280;1209;48.410;9.054;2023-10-31T10:45:45;95240.38;;;12.88;100.00
2397;BME280;1209;48.410;9.054;2023-10-31T10:48:15;95248.66;;;12.85;100.00
2397;BME280;1209;48.410;9.054;2023-10-31T10:50:45;95254.16;;;12.77;100.00
2397;BME280;1209;48.410;9.054;2023-10-31T10:53:24;95240.16;;;12.90;100.00
2397;BME280;1209;48.410;9.054;2023-10-31T10:56:11;95251.50;;;12.84;100.00
2397;BME280;1209;48.410;9.054;2023-10-31T10:58:51;95255.84;;;12.65;100.00
2397;BME280;1209;48.410;9.054;2023-10-31T11:01:19;95255.63;;;12.67;100.00
2397;BME280;1209;48.410;9.054;2023-10-31T11:03:45;95254.16;;;12.77;100.00
2397;BME280;1209;48.410;9.054;2023-10-31T11:06:11;95254.28;;;12.89;100.00
2397;BME280;1209;48.410;9.054;2023-10-31T11:08:37;95249.81;;;13.14;100.00
2397;BME280;1209;48.410;9.054;2023-10-31T11:11:04;95249.63;;;13.41;100.00
2397;BME280;1209;48.410;9.054;2023-10-31T11:13:29;95241.69;;;13.66;100.00
2397;BME280;1209;48.410;9.054;2023-10-31T11:15:57;95252.63;;;13.81;100.00
2397;BME280;1209;48.410;9.054;2023-10-31T11:18:25;95247.00;;;13.96;100.00
2397;BME280;1209;48.410;9.054;2023-10-31T11:20:50;95252.69;;;13.93;100.00
2397;BME280;1209;48.410;9.054;2023-10-31T11:23:16;95262.38;;;13.92;100.00
2397;BME280;1209;48.410;9.054;2023-10-31T11:25:44;95259.34;;;13.77;100.00
2397;BME280;1209;48.410;9.054;2023-10-31T11:28:12;95256.63;;;13.65;100.00
2397;BME280;1209;48.410;9.054;2023-10-31T11:30:37;95261.84;;;13.29;100.00
2397;BME280;1209;48.410;9.054;2023-10-31T11:33:03;95273.41;;;13.14;100.00
2397;BME280;1209;48.410;9.054;2023-10-31T11:35:30;95272.25;;;13.10;100.00
2397;BME280;1209;48.410;9.054;2023-10-31T11:38:09;95263.78;;;13.08;100.00
2397;BME280;1209;48.410;9.054;2023-10-31T11:40:37;95272.59;;;13.20;100.00
2397;BME280;1209;48.410;9.054;2023-10-31T11:43:04;95269.41;;;13.12;100.00
2397;BME280;1209;48.410;9.054;2023-10-31T11:47:58;95264.28;;;13.23;100.00
2397;BME280;1209;48.410;9.054;2023-10-31T11:50:24;95258.28;;;13.41;100.00
2397;BME280;1209;48.410;9.054;2023-10-31T11:53:04;95265.28;;;13.47;100.00
2397;BME280;1209;48.410;9.054;2023-10-31T11:55:31;95267.97;;;13.41;100.00
2397;BME280;1209;48.410;9.054;2023-10-31T11:57:58;95261.34;;;13.38;100.00
2397;BME280;1209;48.410;9.054;2023-10-31T12:00:24;95270.31;;;13.49;100.00
2397;BME280;1209;48.410;9.054;2023-10-31T12:03:00;95262.75;;;13.59;100.00
2397;BME280;1209;48.410;9.054;2023-10-31T12:05:25;95255.81;;;13.65;100.00
2397;BME280;1209;48.410;9.054;2023-10-31T12:07:51;95267.44;;;13.75;100.00
2397;BME280;1209;48.410;9.054;2023-10-31T12:10:25;95264.22;;;13.73;100.00
2397;BME280;1209;48.410;9.054;2023-10-31T12:12:52;95273.84;;;13.79;100.00
2397;BME280;1209;48.410;9.054;2023-10-31T12:15:17;95271.06;;;13.74;100.00
2397;BME280;1209;48.410;9.054;2023-10-31T12:17:42;95273.53;;;13.69;100.00
2397;BME280;1209;48.410;9.054;2023-10-31T12:20:08;95267.75;;;13.61;100.00
2397;BME280;1209;48.410;9.054;2023-10-31T12:22:35;95277.91;;;13.57;100.00
2397;BME280;1209;48.410;9.054;2023-10-31T12:25:04;95271.47;;;13.53;100.00
2397;BME280;1209;48.410;9.054;2023-10-31T12:30:10;95274.97;;;13.65;100.00
2397;BME280;1209;48.410;9.054;2023-10-31T12:32:35;95276.81;;;13.65;100.00
2397;BME280;1209;48.410;9.054;2023-10-31T12:35:01;95270.59;;;13.59;100.00
2397;BME280;1209;48.410;9.054;2023-10-31T12:37:26;95278.47;;;13.59;100.00
2397;BME280;1209;48.410;9.054;2023-10-31T12:39:52;95280.38;;;13.52;100.00
2397;BME280;1209;48.410;9.054;2023-10-31T12:42:17;95283.66;;;13.66;100.00
2397;BME280;1209;48.410;9.054;2023-10-31T12:44:43;95282.41;;;13.68;100.00
2397;BME280;1209;48.410;9.054;2023-10-31T12:47:08;95286.81;;;13.74;100.00
2397;BME280;1209;48.410;9.054;2023-10-31T12:49:34;95281.34;;;13.76;100.00
2397;BME280;1209;48.410;9.054;2023-10-31T12:54:31;95281.75;;;13.54;100.00
2397;BME280;1209;48.410;9.054;2023-10-31T12:57:01;95286.19;;;13.54;100.00
2397;BME280;1209;48.410;9.054;2023-10-31T12:59:27;95282.75;;;13.35;100.00
2397;BME280;1209;48.410;9.054;2023-10-31T13:01:53;95295.06;;;13.35;100.00
2397;BME280;1209;48.410;9.054;2023-10-31T13:04:28;95301.75;;;13.31;100.00
2397;BME280;1209;48.410;9.054;2023-10-31T13:07:00;95300.69;;;13.38;100.00
2397;BME280;1209;48.410;9.054;2023-10-31T13:09:34;95295.16;;;13.46;100.00
2397;BME280;1209;48.410;9.054;2023-10-31T13:12:01;95301.13;;;13.53;100.00
2397;BME280;1209;48.410;9.054;2023-10-31T13:14:28;95300.28;;;13.60;100.00